Time;durP1;ratioP1;P1;durP2;ratioP2;P2;SDS_P1;SDS_P2;PMS_P1;PMS_P2;Temp;Humidity;BMP_temperature;BMP_pressure;BME280_temperature;BME280_humidity;BME280_pressure;Samples;Min_cycle;Max_cycle;Signal;HPM_P1;HPM_P2
2023/07/04 00:01:04;;;;;;;14.50;2.85;;;;;;;13.48;100.00;100962.13;4921395;29;20036;-93
2023/07/04 00:03:30;;;;;;;11.88;2.53;;;;;;;13.55;100.00;100975.28;4901008;29;20020;-92
2023/07/04 00:05:56;;;;;;;14.60;2.80;;;;;;;13.52;100.00;100975.00;4896578;29;20066;-92
2023/07/04 00:08:23;;;;;;;19.08;3.97;;;;;;;13.57;100.00;100983.06;4898646;29;20025;-93
2023/07/04 00:10:50;;;;;;;19.40;2.95;;;;;;;13.47;100.00;100952.44;4915808;29;20601;-92
2023/07/04 00:13:17;;;;;;;15.53;2.90;;;;;;;13.53;100.00;100973.94;4923990;29;20028;-93
2023/07/04 00:15:49;;;;;;;15.00;2.83;;;;;;;13.48;100.00;100977.44;4911588;29;20831;-93
2023/07/04 00:18:20;;;;;;;15.02;2.78;;;;;;;13.35;100.00;100965.34;4897385;29;20361;-94
2023/07/04 00:20:45;;;;;;;12.65;2.85;;;;;;;13.43;100.00;100970.19;4896606;29;20032;-93
2023/07/04 00:23:11;;;;;;;19.17;3.17;;;;;;;13.31;100.00;100954.31;4915959;29;20468;-93
2023/07/04 00:25:36;;;;;;;20.37;3.13;;;;;;;13.36;100.00;100958.88;4915507;29;20028;-94
2023/07/04 00:28:05;;;;;;;20.20;3.30;;;;;;;13.36;100.00;100968.84;4915236;29;20028;-93
2023/07/04 00:30:31;;;;;;;16.48;2.95;;;;;;;13.31;100.00;100956.22;4912469;29;20071;-94
2023/07/04 00:32:57;;;;;;;23.40;3.00;;;;;;;13.26;100.00;100957.00;4913945;29;20043;-93
2023/07/04 00:35:22;;;;;;;14.13;2.47;;;;;;;13.33;100.00;100967.50;4915408;29;20112;-94
2023/07/04 00:37:47;;;;;;;11.93;2.57;;;;;;;13.30;100.00;100971.53;4915523;29;20028;-93
2023/07/04 00:40:13;;;;;;;16.03;3.07;;;;;;;13.18;100.00;100955.69;4913715;29;20441;-93
2023/07/04 00:42:41;;;;;;;15.82;2.80;;;;;;;13.21;100.00;100962.44;4914838;29;20473;-93
2023/07/04 00:45:20;;;;;;;16.33;2.80;;;;;;;13.26;100.00;100966.97;4914019;29;20032;-93
2023/07/04 00:47:55;;;;;;;10.02;2.92;;;;;;;13.28;100.00;100968.31;4914485;29;20040;-93
2023/07/04 00:50:25;;;;;;;16.98;3.08;;;;;;;13.33;100.00;100972.88;4912575;29;20167;-94
2023/07/04 00:52:53;;;;;;;14.80;2.80;;;;;;;13.27;100.00;100958.63;4914324;29;20035;-93
2023/07/04 00:55:19;;;;;;;14.00;2.93;;;;;;;13.34;100.00;100966.41;4914530;29;20280;-93
2023/07/04 00:57:47;;;;;;;14.98;2.78;;;;;;;13.37;100.00;100965.88;4914130;29;20039;-93
2023/07/04 01:00:19;;;;;;;11.10;2.85;;;;;;;13.30;100.00;100959.97;4893446;29;20037;-93
2023/07/04 01:02:50;;;;;;;13.95;2.60;;;;;;;13.33;100.00;100964.81;4913112;29;20024;-94
2023/07/04 01:05:23;;;;;;;16.95;3.40;;;;;;;13.44;100.00;100971.00;4914479;29;20124;-93
2023/07/04 01:07:54;;;;;;;12.45;2.67;;;;;;;13.44;100.00;100974.50;4910789;29;20079;-93
2023/07/04 01:10:36;;;;;;;21.50;3.22;;;;;;;13.44;100.00;100966.44;4883816;29;20049;-92
2023/07/04 01:13:02;;;;;;;19.17;3.17;;;;;;;13.51;100.00;100968.03;4897890;29;20033;-93
2023/07/04 01:15:30;;;;;;;14.40;3.20;;;;;;;13.54;100.00;100976.38;4918892;29;20168;-93
2023/07/04 01:17:58;;;;;;;22.60;3.20;;;;;;;13.56;100.00;100973.38;4896377;29;20040;-93
2023/07/04 01:20:24;;;;;;;15.75;3.00;;;;;;;13.50;100.00;100969.13;4904556;29;20025;-95
2023/07/04 01:23:12;;;;;;;23.10;3.63;;;;;;;13.45;100.00;100962.66;4921540;29;20042;-93
2023/07/04 01:25:51;;;;;;;15.18;3.42;;;;;;;13.46;100.00;100977.72;4922544;29;20024;-93
2023/07/04 01:28:18;;;;;;;20.58;3.38;;;;;;;13.42;100.00;100968.59;4896717;29;20097;-93
2023/07/04 01:30:44;;;;;;;24.23;3.58;;;;;;;13.37;100.00;100971.25;4912173;29;20500;-94
2023/07/04 01:33:13;;;;;;;14.07;3.93;;;;;;;13.27;100.00;100971.28;4915024;29;20350;-95
2023/07/04 01:35:40;;;;;;;17.20;3.20;;;;;;;13.25;100.00;100963.47;4912684;29;20343;-92
2023/07/04 01:38:06;;;;;;;21.77;3.40;;;;;;;13.22;100.00;100984.75;4912941;29;20036;-94
2023/07/04 01:40:34;;;;;;;11.43;3.50;;;;;;;13.21;100.00;100975.06;4885287;29;20032;-94
2023/07/04 01:43:00;;;;;;;20.38;3.38;;;;;;;13.14;100.00;100973.47;4914427;29;20027;-95
2023/07/04 01:45:26;;;;;;;18.50;3.17;;;;;;;13.13;100.00;100955.72;4911341;29;20032;-93
2023/07/04 01:47:52;;;;;;;19.97;3.90;;;;;;;13.18;100.00;100963.75;4913785;29;20043;-94
2023/07/04 01:50:18;;;;;;;14.57;3.38;;;;;;;13.24;100.00;100977.22;4890514;29;20131;-94
2023/07/04 01:52:45;;;;;;;15.18;3.20;;;;;;;13.31;100.00;100972.38;4901967;29;20040;-94
2023/07/04 01:55:13;;;;;;;18.40;3.53;;;;;;;13.35;100.00;100969.94;4913392;29;20036;-94
2023/07/04 01:57:39;;;;;;;18.88;3.92;;;;;;;13.48;100.00;100969.38;4905672;29;20036;-94
2023/07/04 02:00:08;;;;;;;20.25;3.95;;;;;;;13.52;100.00;100977.69;4905801;29;20032;-94
2023/07/04 02:02:35;;;;;;;14.05;3.40;;;;;;;13.51;100.00;100982.28;4907758;29;20028;-93
2023/07/04 02:05:00;;;;;;;22.90;3.40;;;;;;;13.53;100.00;100982.81;4900025;29;20469;-92
2023/07/04 02:07:26;;;;;;;18.67;3.80;;;;;;;13.53;100.00;100979.31;4919531;29;20062;-93
2023/07/04 02:09:51;;;;;;;21.37;3.97;;;;;;;13.51;100.00;100971.53;4921043;29;20067;-92
2023/07/04 02:12:18;;;;;;;19.00;3.80;;;;;;;13.53;100.00;100966.69;4896695;29;20036;-92
2023/07/04 02:14:43;;;;;;;15.07;3.30;;;;;;;13.58;100.00;100973.91;4905406;29;20041;-92
2023/07/04 02:17:08;;;;;;;22.63;4.20;;;;;;;13.57;100.00;100965.06;4914786;29;20041;-93
2023/07/04 02:19:34;;;;;;;24.70;3.85;;;;;;;13.60;100.00;100969.06;4914120;29;20020;-93
2023/07/04 02:21:59;;;;;;;15.97;3.77;;;;;;;13.63;100.00;100955.84;4924778;29;20021;-92
2023/07/04 02:24:24;;;;;;;22.10;3.80;;;;;;;13.76;100.00;100967.94;4918220;29;20025;-93
2023/07/04 02:26:50;;;;;;;16.90;4.00;;;;;;;13.74;100.00;100950.44;4912361;29;20087;-92
2023/07/04 02:29:16;;;;;;;19.83;3.37;;;;;;;13.86;100.00;100971.69;4912708;29;20481;-93
2023/07/04 02:31:41;;;;;;;15.52;3.55;;;;;;;13.90;100.00;100975.41;4889827;29;20040;-93
2023/07/04 02:34:06;;;;;;;18.93;4.07;;;;;;;13.90;100.00;100968.16;4911472;29;20033;-92
2023/07/04 02:36:32;;;;;;;18.50;3.87;;;;;;;13.95;100.00;100969.22;4928511;29;20280;-92
2023/07/04 02:38:57;;;;;;;26.77;4.60;;;;;;;14.06;100.00;100981.53;4917802;29;20031;-92
2023/07/04 02:41:23;;;;;;;22.97;4.40;;;;;;;14.12;100.00;100985.81;4926347;29;20054;-92
2023/07/04 02:43:48;;;;;;;21.27;3.87;;;;;;;14.17;100.00;100990.38;4915671;29;20135;-92
2023/07/04 02:46:13;;;;;;;23.73;3.80;;;;;;;13.99;100.00;100989.09;4898193;29;20032;-90
2023/07/04 02:48:40;;;;;;;23.63;4.53;;;;;;;13.69;100.00;100986.28;4905318;29;20032;-89
2023/07/04 02:51:05;;;;;;;21.05;4.45;;;;;;;13.45;100.00;100984.19;4916260;29;20071;-91
2023/07/04 02:53:31;;;;;;;21.20;4.87;;;;;;;13.30;100.00;100981.50;4917104;29;20032;-88
2023/07/04 02:55:56;;;;;;;23.90;4.87;;;;;;;13.17;100.00;100974.81;4916427;29;20036;-91
2023/07/04 02:58:22;;;;;;;24.57;5.30;;;;;;;13.18;100.00;100976.41;4913756;29;20563;-90
2023/07/04 03:00:48;;;;;;;27.70;4.90;;;;;;;13.04;100.00;100962.72;4905527;29;20103;-90
2023/07/04 03:03:14;;;;;;;25.23;4.65;;;;;;;13.00;100.00;100975.06;4917062;29;20035;-89
2023/07/04 03:05:40;;;;;;;22.17;4.45;;;;;;;13.01;100.00;100984.75;4901720;29;20036;-89
2023/07/04 03:08:05;;;;;;;20.25;4.70;;;;;;;12.95;100.00;100975.91;4911430;29;20048;-89
2023/07/04 03:10:31;;;;;;;17.63;4.67;;;;;;;12.84;100.00;100964.34;4910889;29;20039;-89
2023/07/04 03:12:56;;;;;;;14.67;4.40;;;;;;;12.81;100.00;100974.84;4908983;29;20039;-90
2023/07/04 03:15:22;;;;;;;20.00;4.47;;;;;;;12.83;100.00;100983.44;4914901;29;20032;-90
2023/07/04 03:17:48;;;;;;;22.60;4.90;;;;;;;12.76;100.00;100982.88;4915382;29;20032;-89
2023/07/04 03:20:13;;;;;;;17.73;4.50;;;;;;;12.73;100.00;100982.34;4910141;29;20040;-87
2023/07/04 03:22:39;;;;;;;17.33;4.87;;;;;;;12.61;100.00;100965.69;4916158;29;20039;-86
2023/07/04 03:25:05;;;;;;;16.45;5.18;;;;;;;12.63;100.00;100978.84;4915672;29;20111;-87
2023/07/04 03:27:32;;;;;;;18.63;5.40;;;;;;;12.59;100.00;100978.59;4915719;29;20116;-86
2023/07/04 03:29:57;;;;;;;22.30;5.47;;;;;;;12.59;100.00;100983.16;4914728;29;20062;-87
2023/07/04 03:32:22;;;;;;;18.00;5.27;;;;;;;12.54;100.00;100984.75;4913898;29;20040;-87
2023/07/04 03:34:48;;;;;;;20.30;5.20;;;;;;;12.47;100.00;100976.16;4914763;29;20042;-87
2023/07/04 03:37:14;;;;;;;28.70;5.83;;;;;;;12.41;100.00;100986.09;4915308;29;20042;-87
2023/07/04 03:39:39;;;;;;;21.33;4.68;;;;;;;12.33;100.00;100989.28;4914590;29;20090;-87
2023/07/04 03:42:05;;;;;;;21.20;4.90;;;;;;;12.23;100.00;101000.81;4915218;29;20036;-87
2023/07/04 03:44:30;;;;;;;16.73;4.70;;;;;;;12.08;100.00;100985.47;4915717;29;20040;-87
2023/07/04 03:46:56;;;;;;;20.87;5.10;;;;;;;12.11;100.00;100981.44;4913771;29;20032;-87
2023/07/04 03:49:21;;;;;;;25.30;5.47;;;;;;;12.18;100.00;100982.00;4913338;29;20107;-87
2023/07/04 03:51:46;;;;;;;18.13;5.60;;;;;;;12.13;100.00;100984.69;4915745;29;20114;-87
2023/07/04 03:54:11;;;;;;;25.70;5.37;;;;;;;12.16;100.00;100996.75;4923738;29;20060;-87
2023/07/04 03:56:37;;;;;;;28.13;5.10;;;;;;;12.20;100.00;100992.47;4936607;29;20044;-87
2023/07/04 03:59:02;;;;;;;22.10;5.43;;;;;;;12.23;100.00;101000.81;4919170;29;20055;-87
2023/07/04 04:01:27;;;;;;;32.27;6.40;;;;;;;12.30;100.00;100994.38;4919709;29;20098;-89
2023/07/04 04:03:53;;;;;;;28.80;5.70;;;;;;;12.35;100.00;100999.78;4937560;29;20051;-91
2023/07/04 04:06:20;;;;;;;27.03;5.43;;;;;;;12.38;100.00;100994.66;4895568;29;20100;-91
2023/07/04 04:08:45;;;;;;;30.13;6.10;;;;;;;12.34;100.00;100990.09;4913162;29;20553;-91
2023/07/04 04:11:11;;;;;;;20.83;5.17;;;;;;;12.34;100.00;101009.72;4915681;29;20127;-91
2023/07/04 04:13:36;;;;;;;27.53;5.73;;;;;;;12.33;100.00;101008.09;4915684;29;20300;-92
2023/07/04 04:16:02;;;;;;;24.07;5.40;;;;;;;12.34;100.00;101006.22;4907326;29;20032;-91
2023/07/04 04:18:27;;;;;;;28.75;5.60;;;;;;;12.36;100.00;100996.03;4907322;29;20032;-91
2023/07/04 04:20:52;;;;;;;27.73;6.13;;;;;;;12.52;100.00;101005.72;4899679;29;20032;-92
2023/07/04 04:23:18;;;;;;;26.43;5.57;;;;;;;12.64;100.00;100999.28;4899502;29;20028;-91
2023/07/04 04:25:45;;;;;;;20.20;5.97;;;;;;;12.64;100.00;101001.97;4914473;29;20032;-91
2023/07/04 04:28:11;;;;;;;30.58;6.03;;;;;;;12.70;100.00;101011.66;4910139;29;20472;-92
2023/07/04 04:30:36;;;;;;;24.35;5.80;;;;;;;12.76;100.00;101010.59;4915528;29;20036;-93
2023/07/04 04:33:02;;;;;;;25.03;5.23;;;;;;;12.68;100.00;100995.81;4908974;29;20071;-92
2023/07/04 04:35:29;;;;;;;33.40;5.63;;;;;;;12.82;100.00;101009.50;4897877;29;20067;-91
2023/07/04 04:37:54;;;;;;;27.20;6.15;;;;;;;12.83;100.00;101008.44;4902930;29;20040;-91
2023/07/04 04:40:19;;;;;;;31.17;6.00;;;;;;;12.87;100.00;101011.41;4915968;29;20028;-92
2023/07/04 04:42:45;;;;;;;23.10;5.80;;;;;;;12.99;100.00;101032.63;4904661;29;20039;-92
2023/07/04 04:45:11;;;;;;;24.00;5.40;;;;;;;12.90;100.00;101016.22;4902785;29;20059;-92
2023/07/04 04:47:37;;;;;;;28.37;5.67;;;;;;;12.94;100.00;101033.44;4914122;29;20351;-91
2023/07/04 04:50:02;;;;;;;30.98;5.40;;;;;;;12.91;100.00;101033.19;4915176;29;20032;-92
2023/07/04 04:52:29;;;;;;;29.77;6.23;;;;;;;12.88;100.00;101026.44;4915018;29;20118;-92
2023/07/04 04:54:55;;;;;;;25.02;6.00;;;;;;;12.87;100.00;101028.34;4916713;29;20072;-92
2023/07/04 04:57:21;;;;;;;26.15;6.15;;;;;;;12.92;100.00;101019.47;4912528;29;20059;-93
2023/07/04 04:59:50;;;;;;;25.87;6.20;;;;;;;12.98;100.00;101012.19;4914646;29;20024;-93
2023/07/04 05:02:15;;;;;;;23.40;5.50;;;;;;;13.15;100.00;101017.31;4908205;29;20332;-92
2023/07/04 05:04:41;;;;;;;29.08;6.63;;;;;;;13.30;100.00;101025.38;4895528;29;20104;-90
2023/07/04 05:07:07;;;;;;;36.00;5.85;;;;;;;13.38;100.00;101037.47;4911612;29;20028;-90
2023/07/04 05:09:33;;;;;;;30.77;5.70;;;;;;;13.36;100.00;101045.00;4912933;29;20039;-90
2023/07/04 05:12:00;;;;;;;35.67;7.03;;;;;;;13.71;100.00;101037.97;4914140;29;20028;-92
2023/07/04 05:14:26;;;;;;;26.02;5.97;;;;;;;14.14;100.00;101044.81;4913549;29;20107;-86
2023/07/04 05:16:51;;;;;;;25.00;6.40;;;;;;;14.41;100.00;101032.84;4918160;29;20036;-86
2023/07/04 05:19:16;;;;;;;21.23;5.93;;;;;;;14.74;100.00;101033.19;4915497;29;20052;-86
2023/07/04 05:21:41;;;;;;;30.00;6.17;;;;;;;15.00;100.00;101050.00;4910846;29;20416;-88
2023/07/04 05:24:07;;;;;;;28.70;6.13;;;;;;;15.40;100.00;101044.50;4924729;29;20364;-87
2023/07/04 05:26:32;;;;;;;22.83;4.47;;;;;;;15.35;100.00;101053.47;4916682;29;20040;-89
2023/07/04 05:29:03;;;;;;;26.10;5.40;;;;;;;15.65;100.00;101054.25;4911431;29;20480;-88
2023/07/04 05:31:32;;;;;;;17.90;4.85;;;;;;;16.23;100.00;101039.00;4910842;29;20142;-87
2023/07/04 05:33:58;;;;;;;22.83;5.25;;;;;;;16.69;100.00;101051.06;4912946;29;20066;-87
2023/07/04 05:36:29;;;;;;;26.13;5.00;;;;;;;17.06;100.00;101054.84;4912048;29;20064;-87
2023/07/04 05:38:56;;;;;;;27.52;4.57;;;;;;;17.26;100.00;101047.47;4911561;29;20048;-87
2023/07/04 05:41:25;;;;;;;22.58;4.78;;;;;;;17.50;100.00;101066.28;4914561;29;20036;-86
2023/07/04 05:43:53;;;;;;;25.08;4.85;;;;;;;17.70;100.00;101059.69;4905469;29;20555;-86
2023/07/04 05:46:18;;;;;;;21.88;4.35;;;;;;;17.99;100.00;101069.44;4898816;29;20044;-87
2023/07/04 05:48:44;;;;;;;19.63;4.07;;;;;;;18.31;100.00;101075.03;4905712;29;20032;-87
2023/07/04 05:51:12;;;;;;;18.20;4.40;;;;;;;18.63;100.00;101067.81;4913122;29;20039;-88
2023/07/04 05:53:40;;;;;;;25.30;4.35;;;;;;;18.70;100.00;101070.09;4913688;29;20092;-87
2023/07/04 05:56:11;;;;;;;22.05;4.45;;;;;;;18.71;100.00;101060.84;4913274;29;20052;-88
2023/07/04 05:58:38;;;;;;;19.63;4.20;;;;;;;18.96;100.00;101062.19;4911447;29;20131;-88
2023/07/04 06:01:26;;;;;;;15.27;3.75;;;;;;;19.31;100.00;101077.91;4908817;29;20056;-87
2023/07/04 06:03:53;;;;;;;20.83;3.97;;;;;;;19.07;95.73;101065.44;4904371;29;20040;-88
2023/07/04 06:06:22;;;;;;;22.43;3.97;;;;;;;19.06;100.00;101061.94;4908261;29;20382;-87
2023/07/04 06:08:49;;;;;;;17.90;3.55;;;;;;;19.06;98.56;101063.84;4908776;29;20043;-91
2023/07/04 06:11:15;;;;;;;15.57;3.80;;;;;;;18.72;97.50;101073.31;4913246;29;20515;-89
2023/07/04 06:13:44;;;;;;;18.38;3.80;;;;;;;18.27;98.22;101061.25;4917091;29;20392;-93
2023/07/04 06:16:10;;;;;;;18.17;3.80;;;;;;;18.19;100.00;101077.44;4913786;29;20385;-91
2023/07/04 06:18:35;;;;;;;19.45;3.83;;;;;;;18.20;100.00;101077.16;4913386;29;20099;-91
2023/07/04 06:21:22;;;;;;;22.30;4.23;;;;;;;18.26;100.00;101086.78;4911091;29;20073;-90
2023/07/04 06:23:47;;;;;;;15.73;3.72;;;;;;;18.17;100.00;101092.09;4897987;29;20116;-91
2023/07/04 06:26:13;;;;;;;15.18;3.50;;;;;;;18.21;100.00;101092.31;4900769;29;20509;-91
2023/07/04 06:28:40;;;;;;;19.17;4.60;;;;;;;18.26;100.00;101086.78;4904444;29;20499;-89
2023/07/04 06:31:10;;;;;;;18.53;4.00;;;;;;;18.12;100.00;101077.84;4917486;29;20315;-91
2023/07/04 06:33:36;;;;;;;19.52;4.10;;;;;;;18.00;98.47;101070.22;4911792;29;20039;-92
2023/07/04 06:36:01;;;;;;;14.07;3.77;;;;;;;18.04;98.85;101089.44;4916617;29;20024;-93
2023/07/04 06:38:27;;;;;;;15.70;3.63;;;;;;;18.03;96.80;101085.09;4919872;29;20296;-93
2023/07/04 06:41:00;;;;;;;23.03;3.77;;;;;;;18.33;100.00;101093.72;4918947;29;20103;-91
2023/07/04 06:43:27;;;;;;;16.70;4.40;;;;;;;18.41;97.20;101068.59;4917197;29;20303;-92
2023/07/04 06:45:54;;;;;;;15.77;3.38;;;;;;;18.60;96.22;101112.66;4928843;29;20047;-92
2023/07/04 06:48:23;;;;;;;21.67;4.10;;;;;;;18.66;93.02;101091.63;4923247;29;20032;-89
2023/07/04 06:50:58;;;;;;;12.32;4.00;;;;;;;18.94;94.85;101109.72;4907941;29;20035;-92
2023/07/04 06:53:24;;;;;;;27.90;4.35;;;;;;;18.89;89.24;101097.09;4913301;29;20488;-93
2023/07/04 06:55:49;;;;;;;32.13;4.63;;;;;;;19.09;90.32;101097.72;4918352;29;20043;-92
2023/07/04 06:58:15;;;;;;;19.57;3.27;;;;;;;19.28;89.58;101105.69;4918966;29;20032;-92
2023/07/04 07:00:41;;;;;;;18.73;3.42;;;;;;;19.48;85.89;101123.38;4918721;29;20369;-92
2023/07/04 07:03:08;;;;;;;20.57;4.03;;;;;;;19.54;83.47;101129.50;4920057;29;20037;-90
2023/07/04 07:05:38;;;;;;;16.80;3.50;;;;;;;19.44;79.50;101127.84;4905967;29;20484;-87
2023/07/04 07:08:03;;;;;;;17.73;3.67;;;;;;;19.37;78.76;101115.50;4897826;29;20404;-88
2023/07/04 07:10:31;;;;;;;18.27;3.75;;;;;;;19.38;80.91;101124.44;4906938;29;20054;-90
2023/07/04 07:12:57;;;;;;;16.57;2.77;;;;;;;19.56;81.16;101121.81;4918728;29;20099;-90
2023/07/04 07:15:22;;;;;;;13.33;3.07;;;;;;;19.80;79.46;101116.03;4921062;29;20351;-96
2023/07/04 07:17:48;;;;;;;15.18;3.15;;;;;;;19.93;76.75;101123.31;4923585;29;20032;-96
2023/07/04 07:20:13;;;;;;;14.53;2.73;;;;;;;19.96;76.50;101132.75;4910833;29;20028;-94
2023/07/04 07:22:38;;;;;;;15.27;3.13;;;;;;;19.76;75.46;101121.28;4927995;29;20032;-94
2023/07/04 07:25:04;;;;;;;22.60;3.00;;;;;;;19.67;75.57;101121.22;4928174;29;20055;-94
2023/07/04 07:27:29;;;;;;;16.27;3.30;;;;;;;19.70;75.48;101127.97;4911107;29;20024;-96
2023/07/04 07:29:55;;;;;;;11.43;2.90;;;;;;;19.76;73.97;101131.34;4923304;29;20036;-95
2023/07/04 07:32:20;;;;;;;9.57;2.63;;;;;;;19.84;70.73;101133.28;4934047;29;20047;-96
2023/07/04 07:34:46;;;;;;;14.73;3.17;;;;;;;19.93;73.00;101152.41;4921533;29;20043;-96
2023/07/04 07:37:12;;;;;;;13.10;3.05;;;;;;;19.84;71.00;101144.16;4912588;29;20039;-96
2023/07/04 07:39:38;;;;;;;13.35;3.20;;;;;;;20.09;70.58;101144.63;4922271;29;20317;-96
2023/07/04 07:42:03;;;;;;;18.27;3.30;;;;;;;20.42;69.70;101152.41;4926868;29;20044;-94
2023/07/04 07:44:29;;;;;;;14.85;3.15;;;;;;;20.30;70.39;101138.63;4928984;29;20043;-94
2023/07/04 07:47:06;;;;;;;14.67;2.93;;;;;;;20.21;72.84;101136.66;4932720;29;20008;-96
2023/07/04 07:49:31;;;;;;;11.98;2.78;;;;;;;20.10;68.70;101144.31;5026447;23;20048;-96
2023/07/04 07:51:57;;;;;;;16.00;2.73;;;;;;;20.10;66.19;101141.59;4920104;29;20040;-94
2023/07/04 07:56:57;;;;;;;11.80;3.00;;;;;;;19.97;65.58;101127.00;5209177;23;20055;-94
2023/07/04 07:59:23;;;;;;;10.73;3.03;;;;;;;20.13;63.28;101123.84;4917886;29;20298;-95
2023/07/04 08:06:51;;;;;;;13.20;3.20;;;;;;;20.30;58.74;101120.34;5318576;23;20031;-95
2023/07/04 08:09:35;;;;;;;11.87;2.80;;;;;;;20.49;62.40;101154.66;5271681;23;20116;-96
2023/07/04 08:14:36;;;;;;;9.95;2.92;;;;;;;20.46;58.49;101147.13;5331340;23;20052;-95
2023/07/04 08:17:01;;;;;;;13.33;2.90;;;;;;;20.57;60.21;101126.66;4930951;29;20100;-96
2023/07/04 08:19:32;;;;;;;12.93;3.15;;;;;;;20.69;59.04;101134.97;5056050;23;20052;-96
2023/07/04 08:21:58;;;;;;;10.60;2.50;;;;;;;20.78;57.52;101173.13;4882723;29;20037;-96
2023/07/04 08:24:23;;;;;;;12.85;3.67;;;;;;;20.84;58.24;101162.88;4895128;29;20056;-95
2023/07/04 08:26:52;;;;;;;11.83;2.80;;;;;;;20.85;56.73;101127.19;4903373;29;20017;-96
2023/07/04 08:29:18;;;;;;;10.13;2.78;;;;;;;21.00;54.28;101169.44;5026759;23;20180;-96
2023/07/04 08:31:47;;;;;;;10.35;2.42;;;;;;;20.55;53.08;101145.22;4913859;29;20055;-96
2023/07/04 08:34:12;;;;;;;8.73;2.10;;;;;;;20.32;52.61;101139.88;4946228;29;20032;-96
2023/07/04 08:36:39;;;;;;;17.63;2.80;;;;;;;20.28;53.58;101128.84;4949383;29;20064;-96
2023/07/04 08:39:05;;;;;;;11.60;2.50;;;;;;;20.22;54.68;101137.47;4951530;29;20484;-96
2023/07/04 08:41:59;;;;;;;13.38;2.78;;;;;;;20.42;55.88;101142.31;4949064;29;20079;-96
2023/07/04 08:44:36;;;;;;;11.15;2.40;;;;;;;20.48;57.37;101118.47;5128278;23;21082;-96
2023/07/04 08:47:02;;;;;;;14.30;2.40;;;;;;;20.79;55.67;101124.94;4952223;29;20043;-96
2023/07/04 08:50:00;;;;;;;12.63;2.47;;;;;;;20.97;52.97;101128.44;4951135;29;20098;-96
2023/07/04 08:52:41;;;;;;;9.70;2.50;;;;;;;21.09;52.64;101123.13;4934606;29;20043;-96
2023/07/04 08:55:16;;;;;;;5.97;2.17;;;;;;;21.17;52.18;101160.47;4898852;29;20039;-96
2023/07/04 08:57:58;;;;;;;9.13;2.27;;;;;;;21.24;52.16;101151.81;4917350;29;20310;-96
2023/07/04 09:00:36;;;;;;;9.27;2.40;;;;;;;21.44;51.07;101146.81;4922169;29;20051;-96
2023/07/04 09:03:28;;;;;;;13.23;2.40;;;;;;;21.56;51.53;101168.75;4933266;29;20039;-93
2023/07/04 09:06:06;;;;;;;10.13;2.53;;;;;;;21.84;49.68;101168.38;4938917;29;20027;-96
2023/07/04 09:08:35;;;;;;;6.70;2.00;;;;;;;22.07;47.35;101154.50;4910102;29;20043;-95
2023/07/04 09:11:09;;;;;;;8.65;2.70;;;;;;;22.08;47.00;101176.00;4935590;29;20099;-94
2023/07/04 09:16:36;;;;;;;10.60;2.33;;;;;;;21.70;47.65;101165.06;4216660;23;20060;-96
2023/07/04 09:19:05;;;;;;;9.77;2.10;;;;;;;21.49;46.26;101133.03;4916345;29;20037;-96
2023/07/04 09:21:32;;;;;;;13.33;2.70;;;;;;;21.88;48.16;101143.97;4886604;29;20044;-96
2023/07/04 09:23:59;;;;;;;7.30;2.50;;;;;;;22.30;46.15;101173.31;5545128;23;20296;-96
2023/07/04 09:29:01;;;;;;;9.18;2.80;;;;;;;22.06;46.68;101134.59;5238435;23;20065;-95
2023/07/04 09:31:30;;;;;;;12.90;2.80;;;;;;;22.43;48.32;101147.75;4909353;29;20051;-93
2023/07/04 09:33:57;;;;;;;4.47;2.33;;;;;;;22.99;47.21;101185.72;4900413;29;20119;-94
2023/07/04 09:36:29;;;;;;;9.53;3.10;;;;;;;23.05;44.80;101183.59;4904389;29;20056;-95
2023/07/04 09:39:01;;;;;;;10.57;2.70;;;;;;;23.33;46.27;101191.25;4911552;29;20321;-94
2023/07/04 09:41:31;;;;;;;11.18;2.85;;;;;;;23.49;45.31;101174.22;4898811;29;20374;-96
2023/07/04 09:44:11;;;;;;;10.60;2.67;;;;;;;23.86;42.98;101191.47;4904779;29;20029;-95
2023/07/04 09:46:37;;;;;;;8.02;2.72;;;;;;;23.87;42.67;101193.09;4913802;29;20048;-95
2023/07/04 09:49:42;;;;;;;8.90;2.90;;;;;;;23.77;44.20;101198.19;4908563;29;20032;-93
2023/07/04 09:52:13;;;;;;;10.05;2.80;;;;;;;23.70;42.88;101202.31;4812208;29;20038;-93
2023/07/04 09:54:41;;;;;;;7.43;2.67;;;;;;;23.70;41.52;101196.84;4827824;29;20113;-92
2023/07/04 09:57:23;;;;;;;11.20;2.90;;;;;;;23.95;43.64;101193.34;4860873;29;20048;-96
2023/07/04 09:59:52;;;;;;;6.10;2.80;;;;;;;24.19;42.13;101195.31;4917296;29;20069;-96
2023/07/04 10:05:31;;;;;;;8.87;3.20;;;;;;;24.08;43.86;101158.59;4919767;29;20309;-96
2023/07/04 10:08:10;;;;;;;8.57;3.00;;;;;;;24.42;43.42;101200.31;4917529;29;20017;-96
2023/07/04 10:10:54;;;;;;;8.73;2.60;;;;;;;24.22;42.49;101180.13;4919378;29;20057;-96
2023/07/04 10:13:24;;;;;;;7.85;2.90;;;;;;;24.15;41.41;101177.97;4920972;29;20020;-96
2023/07/04 10:15:51;;;;;;;6.05;2.63;;;;;;;24.03;39.42;101176.84;5350507;23;20072;-95
2023/07/04 10:18:34;;;;;;;8.77;2.78;;;;;;;24.28;42.02;101184.25;4920875;29;20489;-94
2023/07/04 10:21:01;;;;;;;7.00;2.13;;;;;;;24.08;39.18;101148.44;4913472;29;20060;-95
2023/07/04 10:23:29;;;;;;;12.50;2.80;;;;;;;24.11;40.26;101160.63;4917427;29;20028;-96
2023/07/04 10:25:57;;;;;;;12.40;2.75;;;;;;;24.10;40.46;101165.31;4918860;29;20040;-95
2023/07/04 10:28:27;;;;;;;9.27;2.80;;;;;;;23.82;41.30;101151.47;4907170;29;20029;-96
2023/07/04 10:31:01;;;;;;;11.57;2.63;;;;;;;23.92;42.38;101156.47;4900327;29;20312;-94
2023/07/04 10:33:58;;;;;;;9.88;2.65;;;;;;;24.22;42.67;101170.00;4902890;29;20044;-95
2023/07/04 10:36:28;;;;;;;8.88;2.80;;;;;;;23.77;42.14;101162.63;4890035;29;20033;-96
2023/07/04 10:38:57;;;;;;;6.95;2.42;;;;;;;24.05;42.39;101162.78;4893341;29;20056;-95
2023/07/04 10:41:46;;;;;;;7.13;2.40;;;;;;;24.87;43.44;101190.34;4912277;29;20031;-95
2023/07/04 10:44:20;;;;;;;6.95;2.50;;;;;;;25.07;40.89;101202.25;4902632;29;20071;-96
2023/07/04 10:46:54;;;;;;;4.28;2.30;;;;;;;25.17;40.98;101196.28;4909792;29;20069;-95
2023/07/04 10:49:22;;;;;;;7.63;2.20;;;;;;;25.21;39.96;101201.88;4910976;29;20057;-95
2023/07/04 10:51:53;;;;;;;5.95;2.13;;;;;;;25.40;37.62;101188.28;4901199;29;20048;-93
2023/07/04 10:54:19;;;;;;;7.43;2.10;;;;;;;25.04;38.78;101181.00;4910302;29;20039;-96
2023/07/04 10:56:50;;;;;;;6.57;2.40;;;;;;;25.03;40.49;101198.59;4910639;29;20340;-95
2023/07/04 10:59:25;;;;;;;4.50;2.00;;;;;;;25.49;37.76;101201.88;4893658;29;20032;-93
2023/07/04 11:01:55;;;;;;;11.77;1.92;;;;;;;25.50;36.96;101189.75;4906808;29;20033;-95
2023/07/04 11:04:26;;;;;;;4.05;2.22;;;;;;;25.35;39.10;101204.22;4908363;29;20039;-95
2023/07/04 11:07:03;;;;;;;6.50;2.20;;;;;;;25.87;39.25;101196.16;4904906;29;20114;-95
2023/07/04 11:09:34;;;;;;;9.63;2.45;;;;;;;26.51;37.76;101191.41;4908768;29;20043;-94
2023/07/04 11:12:04;;;;;;;6.78;2.10;;;;;;;26.31;36.83;101198.78;4914263;29;20059;-96
2023/07/04 11:14:32;;;;;;;9.73;2.63;;;;;;;26.16;36.40;101208.66;4912163;29;20088;-95
2023/07/04 11:17:03;;;;;;;12.38;2.72;;;;;;;25.84;36.66;101190.22;4910959;29;20103;-96
2023/07/04 11:19:30;;;;;;;9.23;2.10;;;;;;;25.47;37.07;101184.97;4915330;29;20036;-96
2023/07/04 11:22:00;;;;;;;9.27;2.50;;;;;;;25.43;37.17;101203.25;4913383;29;20277;-95
2023/07/04 11:24:36;;;;;;;9.20;2.70;;;;;;;25.32;37.15;101208.44;4911323;29;20077;-95
2023/07/04 11:27:09;;;;;;;8.05;2.35;;;;;;;25.18;38.35;101189.66;4909571;29;20024;-96
2023/07/04 11:29:46;;;;;;;10.63;2.50;;;;;;;25.34;38.77;101192.44;4915197;29;20032;-96
2023/07/04 11:32:17;;;;;;;11.55;2.38;;;;;;;25.56;36.31;101190.28;4917258;29;20047;-96
2023/07/04 11:34:49;;;;;;;7.30;2.40;;;;;;;25.52;35.42;101198.44;4915566;29;20056;-96
2023/07/04 11:37:16;;;;;;;6.03;2.70;;;;;;;25.22;36.20;101196.03;4914811;29;20032;-95
2023/07/04 11:39:46;;;;;;;6.93;2.63;;;;;;;24.98;37.15;101191.44;4916445;29;20051;-95